sensor_id;sensor_type;location;lat;lon;timestamp;temperature;humidity
52471;DHT22;38382;53.160;7.026;2022-08-19T00:00:29;15.80;99.90
52471;DHT22;38382;53.160;7.026;2022-08-19T00:02:58;15.80;99.90
52471;DHT22;38382;53.160;7.026;2022-08-19T00:05:24;16.10;99.90
52471;DHT22;38382;53.160;7.026;2022-08-19T00:07:52;15.70;99.90
52471;DHT22;38382;53.160;7.026;2022-08-19T00:10:19;15.70;99.90
52471;DHT22;38382;53.160;7.026;2022-08-19T00:12:45;15.70;99.90
52471;DHT22;38382;53.160;7.026;2022-08-19T00:15:13;15.60;99.90
52471;DHT22;38382;53.160;7.026;2022-08-19T00:17:41;15.60;99.90
52471;DHT22;38382;53.160;7.026;2022-08-19T00:22:44;15.60;99.90
52471;DHT22;38382;53.160;7.026;2022-08-19T00:25:16;16.00;99.90
52471;DHT22;38382;53.160;7.026;2022-08-19T00:27:48;15.50;99.90
52471;DHT22;38382;53.160;7.026;2022-08-19T00:30:17;15.50;99.90
52471;DHT22;38382;53.160;7.026;2022-08-19T00:32:45;15.50;99.90
52471;DHT22;38382;53.160;7.026;2022-08-19T00:35:11;16.00;99.90
52471;DHT22;38382;53.160;7.026;2022-08-19T00:37:38;15.40;99.90
52471;DHT22;38382;53.160;7.026;2022-08-19T00:40:05;15.40;99.90
52471;DHT22;38382;53.160;7.026;2022-08-19T00:42:31;15.40;99.90
52471;DHT22;38382;53.160;7.026;2022-08-19T00:44:57;15.30;99.90
52471;DHT22;38382;53.160;7.026;2022-08-19T00:47:25;15.30;99.90
52471;DHT22;38382;53.160;7.026;2022-08-19T01:50:42;14.80;99.90
52471;DHT22;38382;53.160;7.026;2022-08-19T01:53:10;14.90;99.90
52471;DHT22;38382;53.160;7.026;2022-08-19T01:55:39;14.80;99.90
52471;DHT22;38382;53.160;7.026;2022-08-19T01:58:30;14.70;99.90
52471;DHT22;38382;53.160;7.026;2022-08-19T02:01:03;14.70;99.90
52471;DHT22;38382;53.160;7.026;2022-08-19T02:03:31;14.70;99.90
52471;DHT22;38382;53.160;7.026;2022-08-19T02:06:02;14.70;99.90
52471;DHT22;38382;53.160;7.026;2022-08-19T02:08:29;15.40;99.90
52471;DHT22;38382;53.160;7.026;2022-08-19T02:10:56;14.70;99.90
52471;DHT22;38382;53.160;7.026;2022-08-19T02:13:23;14.60;99.90
52471;DHT22;38382;53.160;7.026;2022-08-19T02:15:51;14.60;99.90
52471;DHT22;38382;53.160;7.026;2022-08-19T02:18:17;15.20;99.90
52471;DHT22;38382;53.160;7.026;2022-08-19T02:50:39;14.40;99.90
52471;DHT22;38382;53.160;7.026;2022-08-19T02:53:05;14.40;99.90
52471;DHT22;38382;53.160;7.026;2022-08-19T02:55:32;14.40;99.90
52471;DHT22;38382;53.160;7.026;2022-08-19T02:57:59;15.00;99.90
52471;DHT22;38382;53.160;7.026;2022-08-19T03:00:26;14.40;99.90
52471;DHT22;38382;53.160;7.026;2022-08-19T03:02:52;14.70;99.90
52471;DHT22;38382;53.160;7.026;2022-08-19T03:05:18;14.90;99.90
52471;DHT22;38382;53.160;7.026;2022-08-19T03:07:44;14.50;99.90
52471;DHT22;38382;53.160;7.026;2022-08-19T03:10:12;14.50;99.90
52471;DHT22;38382;53.160;7.026;2022-08-19T03:12:38;15.20;99.90
52471;DHT22;38382;53.160;7.026;2022-08-19T03:15:06;14.50;99.90
52471;DHT22;38382;53.160;7.026;2022-08-19T03:17:33;14.40;99.90
52471;DHT22;38382;53.160;7.026;2022-08-19T03:19:59;14.40;99.90
52471;DHT22;38382;53.160;7.026;2022-08-19T03:22:25;14.90;99.90
52471;DHT22;38382;53.160;7.026;2022-08-19T03:24:51;14.40;99.90
52471;DHT22;38382;53.160;7.026;2022-08-19T03:27:16;14.40;99.90
52471;DHT22;38382;53.160;7.026;2022-08-19T03:29:43;15.50;99.90
52471;DHT22;38382;53.160;7.026;2022-08-19T03:32:09;14.20;99.90
52471;DHT22;38382;53.160;7.026;2022-08-19T03:38:55;14.50;99.90
52471;DHT22;38382;53.160;7.026;2022-08-19T03:41:24;14.40;99.90
52471;DHT22;38382;53.160;7.026;2022-08-19T03:43:50;14.40;99.90
52471;DHT22;38382;53.160;7.026;2022-08-19T03:46:18;14.40;99.90
52471;DHT22;38382;53.160;7.026;2022-08-19T03:48:50;14.60;99.90
52471;DHT22;38382;53.160;7.026;2022-08-19T04:49:59;14.30;99.90
52471;DHT22;38382;53.160;7.026;2022-08-19T04:52:25;14.30;99.90
52471;DHT22;38382;53.160;7.026;2022-08-19T04:54:51;14.30;99.90
52471;DHT22;38382;53.160;7.026;2022-08-19T04:57:16;14.40;99.90
52471;DHT22;38382;53.160;7.026;2022-08-19T04:59:42;14.40;99.90
52471;DHT22;38382;53.160;7.026;2022-08-19T05:02:09;14.40;99.90
52471;DHT22;38382;53.160;7.026;2022-08-19T05:04:35;14.40;99.90
52471;DHT22;38382;53.160;7.026;2022-08-19T05:07:04;14.40;99.90
52471;DHT22;38382;53.160;7.026;2022-08-19T05:09:30;14.30;99.90
52471;DHT22;38382;53.160;7.026;2022-08-19T05:11:56;14.50;99.90
52471;DHT22;38382;53.160;7.026;2022-08-19T05:14:22;14.70;99.90
52471;DHT22;38382;53.160;7.026;2022-08-19T05:16:48;14.40;99.90
52471;DHT22;38382;53.160;7.026;2022-08-19T05:19:14;14.40;99.90
52471;DHT22;38382;53.160;7.026;2022-08-19T05:21:59;14.70;99.90
52471;DHT22;38382;53.160;7.026;2022-08-19T05:24:44;14.40;99.90
52471;DHT22;38382;53.160;7.026;2022-08-19T05:27:09;14.50;99.90
52471;DHT22;38382;53.160;7.026;2022-08-19T05:29:35;14.50;99.90
52471;DHT22;38382;53.160;7.026;2022-08-19T05:32:03;13.90;99.90
52471;DHT22;38382;53.160;7.026;2022-08-19T05:34:30;14.50;99.90
52471;DHT22;38382;53.160;7.026;2022-08-19T05:40:19;14.50;99.90
52471;DHT22;38382;53.160;7.026;2022-08-19T05:42:45;14.40;99.90
52471;DHT22;38382;53.160;7.026;2022-08-19T05:45:11;14.50;99.90
52471;DHT22;38382;53.160;7.026;2022-08-19T05:47:37;14.60;99.90
52471;DHT22;38382;53.160;7.026;2022-08-19T06:52:25;16.30;99.90
52471;DHT22;38382;53.160;7.026;2022-08-19T06:54:51;16.40;99.90
52471;DHT22;38382;53.160;7.026;2022-08-19T06:57:16;16.60;99.90
52471;DHT22;38382;53.160;7.026;2022-08-19T06:59:42;16.40;99.90
52471;DHT22;38382;53.160;7.026;2022-08-19T07:02:08;16.60;99.90
52471;DHT22;38382;53.160;7.026;2022-08-19T07:04:35;16.70;99.90
52471;DHT22;38382;53.160;7.026;2022-08-19T07:07:16;16.70;99.90
52471;DHT22;38382;53.160;7.026;2022-08-19T07:09:44;16.80;99.90
52471;DHT22;38382;53.160;7.026;2022-08-19T07:12:12;16.80;99.90
52471;DHT22;38382;53.160;7.026;2022-08-19T07:14:40;16.80;99.90
52471;DHT22;38382;53.160;7.026;2022-08-19T07:17:09;16.90;99.90
52471;DHT22;38382;53.160;7.026;2022-08-19T07:19:36;17.00;99.90
52471;DHT22;38382;53.160;7.026;2022-08-19T07:22:05;17.10;99.90
52471;DHT22;38382;53.160;7.026;2022-08-19T07:24:32;17.10;99.90
52471;DHT22;38382;53.160;7.026;2022-08-19T07:27:00;17.20;99.90
52471;DHT22;38382;53.160;7.026;2022-08-19T07:29:32;17.30;99.90
52471;DHT22;38382;53.160;7.026;2022-08-19T07:32:00;17.40;99.90
52471;DHT22;38382;53.160;7.026;2022-08-19T07:34:28;17.50;99.90
52471;DHT22;38382;53.160;7.026;2022-08-19T07:37:13;17.60;99.90
52471;DHT22;38382;53.160;7.026;2022-08-19T07:39:39;18.00;99.90
52471;DHT22;38382;53.160;7.026;2022-08-19T07:42:07;18.10;99.90
52471;DHT22;38382;53.160;7.026;2022-08-19T07:44:34;18.00;99.90
52471;DHT22;38382;53.160;7.026;2022-08-19T07:47:01;18.00;99.90
52471;DHT22;38382;53.160;7.026;2022-08-19T07:49:27;18.10;99.90
52471;DHT22;38382;53.160;7.026;2022-08-19T07:52:03;18.30;99.90
52471;DHT22;38382;53.160;7.026;2022-08-19T07:54:33;18.40;99.90
52471;DHT22;38382;53.160;7.026;2022-08-19T07:57:00;18.50;99.90
52471;DHT22;38382;53.160;7.026;2022-08-19T07:59:27;18.60;99.90
52471;DHT22;38382;53.160;7.026;2022-08-19T08:01:55;18.70;99.90
52471;DHT22;38382;53.160;7.026;2022-08-19T08:04:23;18.50;99.90
52471;DHT22;38382;53.160;7.026;2022-08-19T08:07:07;19.10;99.90
52471;DHT22;38382;53.160;7.026;2022-08-19T08:09:52;19.20;99.90
52471;DHT22;38382;53.160;7.026;2022-08-19T08:12:23;19.40;99.90
52471;DHT22;38382;53.160;7.026;2022-08-19T08:15:00;19.60;99.90
52471;DHT22;38382;53.160;7.026;2022-08-19T08:17:30;19.70;99.90
52471;DHT22;38382;53.160;7.026;2022-08-19T08:19:57;19.90;99.90
52471;DHT22;38382;53.160;7.026;2022-08-19T08:22:24;20.10;99.90
52471;DHT22;38382;53.160;7.026;2022-08-19T08:25:15;20.20;99.90
52471;DHT22;38382;53.160;7.026;2022-08-19T08:27:43;20.40;99.90
52471;DHT22;38382;53.160;7.026;2022-08-19T08:30:15;20.60;99.90
52471;DHT22;38382;53.160;7.026;2022-08-19T08:32:41;20.90;99.90
52471;DHT22;38382;53.160;7.026;2022-08-19T08:35:11;21.10;99.90
52471;DHT22;38382;53.160;7.026;2022-08-19T08:37:38;21.40;99.90
52471;DHT22;38382;53.160;7.026;2022-08-19T08:40:29;21.70;99.90
52471;DHT22;38382;53.160;7.026;2022-08-19T08:43:24;21.90;99.90
52471;DHT22;38382;53.160;7.026;2022-08-19T08:51:26;22.40;99.90
52471;DHT22;38382;53.160;7.026;2022-08-19T08:53:54;22.70;99.90
52471;DHT22;38382;53.160;7.026;2022-08-19T08:56:21;22.90;99.90
52471;DHT22;38382;53.160;7.026;2022-08-19T08:59:04;23.10;99.90
52471;DHT22;38382;53.160;7.026;2022-08-19T09:01:35;23.40;99.90
52471;DHT22;38382;53.160;7.026;2022-08-19T09:04:06;23.50;99.90
52471;DHT22;38382;53.160;7.026;2022-08-19T09:06:40;23.60;99.90
52471;DHT22;38382;53.160;7.026;2022-08-19T09:09:34;23.80;99.90
52471;DHT22;38382;53.160;7.026;2022-08-19T09:12:14;24.10;99.90
52471;DHT22;38382;53.160;7.026;2022-08-19T09:17:12;24.50;99.90
52471;DHT22;38382;53.160;7.026;2022-08-19T09:22:15;24.80;99.90
52471;DHT22;38382;53.160;7.026;2022-08-19T09:24:41;24.90;99.90
52471;DHT22;38382;53.160;7.026;2022-08-19T09:27:07;25.10;99.90
52471;DHT22;38382;53.160;7.026;2022-08-19T09:29:32;25.20;99.90
52471;DHT22;38382;53.160;7.026;2022-08-19T09:31:58;25.40;99.90
52471;DHT22;38382;53.160;7.026;2022-08-19T09:34:24;25.50;99.90
52471;DHT22;38382;53.160;7.026;2022-08-19T09:37:18;25.70;99.90
52471;DHT22;38382;53.160;7.026;2022-08-19T09:39:44;25.80;99.90
52471;DHT22;38382;53.160;7.026;2022-08-19T09:42:10;26.00;99.90
52471;DHT22;38382;53.160;7.026;2022-08-19T09:44:42;26.10;99.90
52471;DHT22;38382;53.160;7.026;2022-08-19T09:47:09;26.30;99.90
52471;DHT22;38382;53.160;7.026;2022-08-19T09:49:35;26.50;99.90
52471;DHT22;38382;53.160;7.026;2022-08-19T10:15:19;27.50;99.90
52471;DHT22;38382;53.160;7.026;2022-08-19T10:17:46;27.70;99.90
52471;DHT22;38382;53.160;7.026;2022-08-19T10:20:12;27.70;99.90
52471;DHT22;38382;53.160;7.026;2022-08-19T10:22:38;27.80;99.90
52471;DHT22;38382;53.160;7.026;2022-08-19T10:25:06;27.90;99.90
52471;DHT22;38382;53.160;7.026;2022-08-19T10:27:32;28.10;99.90
52471;DHT22;38382;53.160;7.026;2022-08-19T10:29:58;28.20;99.90
52471;DHT22;38382;53.160;7.026;2022-08-19T10:32:23;28.10;99.90
52471;DHT22;38382;53.160;7.026;2022-08-19T10:34:50;28.40;99.90
52471;DHT22;38382;53.160;7.026;2022-08-19T10:37:17;28.50;99.90
52471;DHT22;38382;53.160;7.026;2022-08-19T10:39:45;28.70;99.90
52471;DHT22;38382;53.160;7.026;2022-08-19T10:42:13;28.80;99.90
52471;DHT22;38382;53.160;7.026;2022-08-19T10:44:39;28.90;99.90
52471;DHT22;38382;53.160;7.026;2022-08-19T10:47:05;29.10;99.90
52471;DHT22;38382;53.160;7.026;2022-08-19T10:49:31;29.20;99.50
52471;DHT22;38382;53.160;7.026;2022-08-19T10:51:57;29.40;99.70
52471;DHT22;38382;53.160;7.026;2022-08-19T10:54:42;29.40;97.40
52471;DHT22;38382;53.160;7.026;2022-08-19T10:57:30;29.40;96.90
52471;DHT22;38382;53.160;7.026;2022-08-19T10:59:56;29.60;97.10
52471;DHT22;38382;53.160;7.026;2022-08-19T11:02:22;29.70;96.90
52471;DHT22;38382;53.160;7.026;2022-08-19T11:04:48;29.90;95.70
52471;DHT22;38382;53.160;7.026;2022-08-19T11:10:41;29.80;91.50
52471;DHT22;38382;53.160;7.026;2022-08-19T11:13:06;30.00;93.50
52471;DHT22;38382;53.160;7.026;2022-08-19T11:15:32;30.00;93.70
52471;DHT22;38382;53.160;7.026;2022-08-19T11:17:59;30.20;93.20
52471;DHT22;38382;53.160;7.026;2022-08-19T11:20:25;30.40;92.60
52471;DHT22;38382;53.160;7.026;2022-08-19T11:22:52;30.60;91.00
52471;DHT22;38382;53.160;7.026;2022-08-19T11:25:19;30.90;89.10
52471;DHT22;38382;53.160;7.026;2022-08-19T11:27:44;31.10;89.50
52471;DHT22;38382;53.160;7.026;2022-08-19T11:30:13;30.90;87.70
52471;DHT22;38382;53.160;7.026;2022-08-19T11:32:40;31.00;88.40
52471;DHT22;38382;53.160;7.026;2022-08-19T11:35:06;31.00;90.30
52471;DHT22;38382;53.160;7.026;2022-08-19T11:37:32;30.90;90.00
52471;DHT22;38382;53.160;7.026;2022-08-19T11:40:04;31.00;89.70
52471;DHT22;38382;53.160;7.026;2022-08-19T11:42:30;31.10;89.30
52471;DHT22;38382;53.160;7.026;2022-08-19T11:45:15;31.40;90.20
52471;DHT22;38382;53.160;7.026;2022-08-19T11:47:40;31.30;88.20
52471;DHT22;38382;53.160;7.026;2022-08-19T11:50:06;31.10;87.00
52471;DHT22;38382;53.160;7.026;2022-08-19T11:52:32;30.60;86.70
52471;DHT22;38382;53.160;7.026;2022-08-19T11:54:58;30.20;88.50
52471;DHT22;38382;53.160;7.026;2022-08-19T11:57:23;29.80;88.40
52471;DHT22;38382;53.160;7.026;2022-08-19T11:59:50;29.60;87.50
52471;DHT22;38382;53.160;7.026;2022-08-19T12:02:17;29.50;87.90
52471;DHT22;38382;53.160;7.026;2022-08-19T12:04:42;29.60;89.70
52471;DHT22;38382;53.160;7.026;2022-08-19T12:07:08;30.10;90.30
52471;DHT22;38382;53.160;7.026;2022-08-19T12:10:11;30.50;89.60
52471;DHT22;38382;53.160;7.026;2022-08-19T12:12:37;31.00;88.30
52471;DHT22;38382;53.160;7.026;2022-08-19T12:15:09;31.20;86.30
52471;DHT22;38382;53.160;7.026;2022-08-19T12:17:36;31.30;85.10
52471;DHT22;38382;53.160;7.026;2022-08-19T12:20:03;31.40;84.20
52471;DHT22;38382;53.160;7.026;2022-08-19T12:22:30;31.60;81.60
52471;DHT22;38382;53.160;7.026;2022-08-19T12:31:59;32.30;77.60
52471;DHT22;38382;53.160;7.026;2022-08-19T12:34:28;32.40;79.30
52471;DHT22;38382;53.160;7.026;2022-08-19T12:36:57;32.80;80.60
52471;DHT22;38382;53.160;7.026;2022-08-19T12:39:42;32.70;80.30
52471;DHT22;38382;53.160;7.026;2022-08-19T12:42:12;32.60;77.50
52471;DHT22;38382;53.160;7.026;2022-08-19T12:44:39;32.30;81.50
52471;DHT22;38382;53.160;7.026;2022-08-19T12:47:07;31.80;82.00
52471;DHT22;38382;53.160;7.026;2022-08-19T12:49:33;31.60;82.20
52471;DHT22;38382;53.160;7.026;2022-08-19T12:52:08;31.70;82.70
52471;DHT22;38382;53.160;7.026;2022-08-19T12:54:37;31.60;79.50
52471;DHT22;38382;53.160;7.026;2022-08-19T12:57:07;31.80;80.60
52471;DHT22;38382;53.160;7.026;2022-08-19T12:59:34;32.10;81.50
52471;DHT22;38382;53.160;7.026;2022-08-19T13:02:02;32.00;84.20
52471;DHT22;38382;53.160;7.026;2022-08-19T13:04:30;31.70;83.30
52471;DHT22;38382;53.160;7.026;2022-08-19T13:06:55;31.90;82.40
52471;DHT22;38382;53.160;7.026;2022-08-19T13:09:22;32.20;81.30
52471;DHT22;38382;53.160;7.026;2022-08-19T13:11:48;32.00;80.30
52471;DHT22;38382;53.160;7.026;2022-08-19T13:14:13;31.80;81.30
52471;DHT22;38382;53.160;7.026;2022-08-19T13:16:39;31.60;81.90
52471;DHT22;38382;53.160;7.026;2022-08-19T13:19:05;31.50;82.30
52471;DHT22;38382;53.160;7.026;2022-08-19T13:21:32;31.50;81.70
52471;DHT22;38382;53.160;7.026;2022-08-19T13:23:58;31.30;82.80
52471;DHT22;38382;53.160;7.026;2022-08-19T13:26:24;31.00;83.60
52471;DHT22;38382;53.160;7.026;2022-08-19T13:28:50;30.60;84.80
52471;DHT22;38382;53.160;7.026;2022-08-19T13:31:40;30.30;87.10
52471;DHT22;38382;53.160;7.026;2022-08-19T13:34:33;30.00;87.90
52471;DHT22;38382;53.160;7.026;2022-08-19T13:37:01;29.70;88.40
52471;DHT22;38382;53.160;7.026;2022-08-19T13:39:52;29.60;87.80
52471;DHT22;38382;53.160;7.026;2022-08-19T13:42:18;29.40;88.30
52471;DHT22;38382;53.160;7.026;2022-08-19T13:44:44;29.40;87.20
52471;DHT22;38382;53.160;7.026;2022-08-19T13:47:13;29.50;86.30
52471;DHT22;38382;53.160;7.026;2022-08-19T13:49:39;29.50;86.00
52471;DHT22;38382;53.160;7.026;2022-08-19T13:52:08;29.60;85.80
52471;DHT22;38382;53.160;7.026;2022-08-19T13:54:34;29.50;86.20
52471;DHT22;38382;53.160;7.026;2022-08-19T13:57:00;29.20;87.30
52471;DHT22;38382;53.160;7.026;2022-08-19T13:59:25;29.30;88.50
52471;DHT22;38382;53.160;7.026;2022-08-19T14:01:51;29.30;89.30
52471;DHT22;38382;53.160;7.026;2022-08-19T14:04:18;29.50;88.20
52471;DHT22;38382;53.160;7.026;2022-08-19T14:06:44;29.70;88.00
52471;DHT22;38382;53.160;7.026;2022-08-19T14:09:10;29.60;88.00
52471;DHT22;38382;53.160;7.026;2022-08-19T14:11:35;29.80;87.60
52471;DHT22;38382;53.160;7.026;2022-08-19T14:14:02;29.90;86.60
52471;DHT22;38382;53.160;7.026;2022-08-19T14:16:28;30.00;86.90
52471;DHT22;38382;53.160;7.026;2022-08-19T14:18:55;30.20;87.50
52471;DHT22;38382;53.160;7.026;2022-08-19T14:21:22;30.30;86.10
52471;DHT22;38382;53.160;7.026;2022-08-19T14:23:51;30.50;85.80
52471;DHT22;38382;53.160;7.026;2022-08-19T14:26:18;30.80;82.40
52471;DHT22;38382;53.160;7.026;2022-08-19T14:28:45;30.70;80.60
52471;DHT22;38382;53.160;7.026;2022-08-19T14:31:12;30.50;80.40
52471;DHT22;38382;53.160;7.026;2022-08-19T14:33:40;30.10;84.50
52471;DHT22;38382;53.160;7.026;2022-08-19T14:36:09;29.80;89.10
52471;DHT22;38382;53.160;7.026;2022-08-19T14:38:35;29.50;90.70
52471;DHT22;38382;53.160;7.026;2022-08-19T14:41:20;29.10;92.20
52471;DHT22;38382;53.160;7.026;2022-08-19T14:43:48;28.80;95.00
52471;DHT22;38382;53.160;7.026;2022-08-19T14:46:16;28.60;95.80
52471;DHT22;38382;53.160;7.026;2022-08-19T14:48:42;28.40;97.20
52471;DHT22;38382;53.160;7.026;2022-08-19T14:51:09;28.30;98.80
52471;DHT22;38382;53.160;7.026;2022-08-19T14:53:35;28.10;99.90
52471;DHT22;38382;53.160;7.026;2022-08-19T14:56:01;27.90;99.90
52471;DHT22;38382;53.160;7.026;2022-08-19T14:58:32;27.80;99.90
52471;DHT22;38382;53.160;7.026;2022-08-19T15:01:01;27.70;99.90
52471;DHT22;38382;53.160;7.026;2022-08-19T15:03:32;27.60;99.90
52471;DHT22;38382;53.160;7.026;2022-08-19T15:06:03;27.50;99.90
52471;DHT22;38382;53.160;7.026;2022-08-19T15:08:34;27.40;99.90
52471;DHT22;38382;53.160;7.026;2022-08-19T15:11:22;27.40;99.90
52471;DHT22;38382;53.160;7.026;2022-08-19T15:13:48;27.50;99.90
52471;DHT22;38382;53.160;7.026;2022-08-19T15:16:15;27.80;99.90
52471;DHT22;38382;53.160;7.026;2022-08-19T15:18:42;28.00;99.90
52471;DHT22;38382;53.160;7.026;2022-08-19T15:21:14;28.00;99.90
52471;DHT22;38382;53.160;7.026;2022-08-19T15:23:51;27.90;99.90
52471;DHT22;38382;53.160;7.026;2022-08-19T15:26:31;27.80;99.90
52471;DHT22;38382;53.160;7.026;2022-08-19T15:29:01;27.70;99.90
52471;DHT22;38382;53.160;7.026;2022-08-19T15:31:30;27.60;99.90
52471;DHT22;38382;53.160;7.026;2022-08-19T15:34:02;27.50;99.90
52471;DHT22;38382;53.160;7.026;2022-08-19T15:36:28;27.30;99.90
52471;DHT22;38382;53.160;7.026;2022-08-19T15:38:56;27.10;99.90
52471;DHT22;38382;53.160;7.026;2022-08-19T15:45:04;26.80;99.90
52471;DHT22;38382;53.160;7.026;2022-08-19T15:47:30;26.60;99.90
52471;DHT22;38382;53.160;7.026;2022-08-19T15:52:27;26.30;99.90
52471;DHT22;38382;53.160;7.026;2022-08-19T15:58:37;26.00;99.90
52471;DHT22;38382;53.160;7.026;2022-08-19T16:01:22;25.90;99.90
52471;DHT22;38382;53.160;7.026;2022-08-19T16:03:54;25.70;99.90
52471;DHT22;38382;53.160;7.026;2022-08-19T16:06:41;25.60;99.90
52471;DHT22;38382;53.160;7.026;2022-08-19T16:09:07;25.50;99.90
52471;DHT22;38382;53.160;7.026;2022-08-19T16:15:14;25.30;99.90
52471;DHT22;38382;53.160;7.026;2022-08-19T16:17:41;25.20;99.90
52471;DHT22;38382;53.160;7.026;2022-08-19T16:20:08;25.10;99.90
52471;DHT22;38382;53.160;7.026;2022-08-19T16:22:34;25.10;99.90
52471;DHT22;38382;53.160;7.026;2022-08-19T16:25:04;25.00;99.90
52471;DHT22;38382;53.160;7.026;2022-08-19T16:27:35;25.00;99.90
52471;DHT22;38382;53.160;7.026;2022-08-19T16:30:01;24.90;99.90
52471;DHT22;38382;53.160;7.026;2022-08-19T16:32:29;24.80;99.90
52471;DHT22;38382;53.160;7.026;2022-08-19T16:35:02;24.60;99.90
52471;DHT22;38382;53.160;7.026;2022-08-19T16:37:37;24.70;99.90
52471;DHT22;38382;53.160;7.026;2022-08-19T16:43:22;24.50;99.90
52471;DHT22;38382;53.160;7.026;2022-08-19T16:45:52;24.40;99.90
52471;DHT22;38382;53.160;7.026;2022-08-19T16:48:43;24.40;99.90
52471;DHT22;38382;53.160;7.026;2022-08-19T17:22:17;24.10;99.90
52471;DHT22;38382;53.160;7.026;2022-08-19T17:24:42;24.10;99.90
52471;DHT22;38382;53.160;7.026;2022-08-19T17:27:08;24.10;99.90
52471;DHT22;38382;53.160;7.026;2022-08-19T17:29:34;24.10;99.90
52471;DHT22;38382;53.160;7.026;2022-08-19T17:32:00;24.00;99.90
52471;DHT22;38382;53.160;7.026;2022-08-19T17:34:26;24.10;99.90
52471;DHT22;38382;53.160;7.026;2022-08-19T17:36:53;24.10;99.90
52471;DHT22;38382;53.160;7.026;2022-08-19T17:39:24;24.00;99.90
52471;DHT22;38382;53.160;7.026;2022-08-19T17:45:30;24.00;99.90
52471;DHT22;38382;53.160;7.026;2022-08-19T17:47:56;23.90;99.90
52471;DHT22;38382;53.160;7.026;2022-08-19T17:52:58;23.80;99.90
52471;DHT22;38382;53.160;7.026;2022-08-19T17:55:26;23.70;99.90
52471;DHT22;38382;53.160;7.026;2022-08-19T17:57:52;23.70;99.90
52471;DHT22;38382;53.160;7.026;2022-08-19T18:00:21;23.60;99.90
52471;DHT22;38382;53.160;7.026;2022-08-19T18:02:55;23.60;99.90
52471;DHT22;38382;53.160;7.026;2022-08-19T18:05:25;23.50;99.90
52471;DHT22;38382;53.160;7.026;2022-08-19T18:08:02;23.40;99.90
52471;DHT22;38382;53.160;7.026;2022-08-19T18:14:41;23.20;99.90
52471;DHT22;38382;53.160;7.026;2022-08-19T18:17:15;23.20;99.90
52471;DHT22;38382;53.160;7.026;2022-08-19T18:19:46;23.10;99.90
52471;DHT22;38382;53.160;7.026;2022-08-19T18:37:47;22.80;99.90
52471;DHT22;38382;53.160;7.026;2022-08-19T18:43:23;22.70;99.90
52471;DHT22;38382;53.160;7.026;2022-08-19T18:45:52;22.60;99.90
52471;DHT22;38382;53.160;7.026;2022-08-19T18:48:37;22.60;99.90
52471;DHT22;38382;53.160;7.026;2022-08-19T18:51:22;22.40;99.90
52471;DHT22;38382;53.160;7.026;2022-08-19T18:53:49;22.30;99.90
52471;DHT22;38382;53.160;7.026;2022-08-19T18:56:18;22.10;99.90
52471;DHT22;38382;53.160;7.026;2022-08-19T18:58:44;22.10;99.90
52471;DHT22;38382;53.160;7.026;2022-08-19T19:01:18;22.00;99.90
52471;DHT22;38382;53.160;7.026;2022-08-19T19:03:47;21.90;99.90
52471;DHT22;38382;53.160;7.026;2022-08-19T19:06:22;21.90;99.90
52471;DHT22;38382;53.160;7.026;2022-08-19T19:08:54;21.80;99.90
52471;DHT22;38382;53.160;7.026;2022-08-19T19:11:26;21.80;99.90
52471;DHT22;38382;53.160;7.026;2022-08-19T19:14:19;21.70;99.90
52471;DHT22;38382;53.160;7.026;2022-08-19T19:17:51;21.60;99.90
52471;DHT22;38382;53.160;7.026;2022-08-19T20:53:46;20.50;99.90
52471;DHT22;38382;53.160;7.026;2022-08-19T20:56:12;20.50;99.90
52471;DHT22;38382;53.160;7.026;2022-08-19T21:17:42;20.40;99.90
52471;DHT22;38382;53.160;7.026;2022-08-19T23:02:42;19.80;99.90
52471;DHT22;38382;53.160;7.026;2022-08-19T23:08:33;19.80;99.90
52471;DHT22;38382;53.160;7.026;2022-08-19T23:11:10;19.70;99.90
52471;DHT22;38382;53.160;7.026;2022-08-19T23:52:03;19.40;99.90
52471;DHT22;38382;53.160;7.026;2022-08-19T23:54:32;19.40;99.90
52471;DHT22;38382;53.160;7.026;2022-08-19T23:57:00;19.40;99.90
52471;DHT22;38382;53.160;7.026;2022-08-19T23:59:26;19.40;99.90
